Time;durP1;ratioP1;P1;durP2;ratioP2;P2;SDS_P1;SDS_P2;PMS_P1;PMS_P2;Temp;Humidity;BMP_temperature;BMP_pressure;BME280_temperature;BME280_humidity;BME280_pressure;Samples;Min_cycle;Max_cycle;Signal;HPM_P1;HPM_P2
2022/04/28 00:02:15;;;;;;;10.27;5.00;;;9.20;99.90;;;;;;4996079;28;20041;-63
2022/04/28 00:04:40;;;;;;;9.80;4.80;;;9.20;99.90;;;;;;4996728;28;20129;-64
2022/04/28 00:07:06;;;;;;;10.55;4.65;;;9.20;99.90;;;;;;4994945;28;20054;-63
2022/04/28 00:09:31;;;;;;;12.35;4.95;;;9.10;99.90;;;;;;4996028;28;20050;-65
2022/04/28 00:11:57;;;;;;;9.32;4.47;;;9.20;99.90;;;;;;4995623;28;20046;-65
2022/04/28 00:14:22;;;;;;;7.78;4.20;;;9.10;99.90;;;;;;4995360;28;20050;-65
2022/04/28 00:16:48;;;;;;;9.23;4.93;;;9.10;99.90;;;;;;4995832;28;20038;-65
2022/04/28 00:19:14;;;;;;;10.68;5.00;;;9.10;99.90;;;;;;4978828;28;20125;-66
2022/04/28 00:21:39;;;;;;;9.50;4.75;;;9.10;99.90;;;;;;4995685;28;20376;-64
2022/04/28 00:24:05;;;;;;;15.50;5.63;;;9.10;99.90;;;;;;4995575;28;20464;-67
2022/04/28 00:26:31;;;;;;;12.20;4.63;;;9.10;99.90;;;;;;4995227;28;20137;-65
2022/04/28 00:28:56;;;;;;;8.27;4.68;;;9.10;99.90;;;;;;4995228;28;20061;-66
2022/04/28 00:31:22;;;;;;;9.98;4.50;;;9.10;99.90;;;;;;4995600;28;20078;-64
2022/04/28 00:33:48;;;;;;;11.20;4.72;;;9.10;99.90;;;;;;4994857;28;20431;-64
2022/04/28 00:36:17;;;;;;;14.77;5.07;;;9.10;99.90;;;;;;4994072;28;20052;-65
2022/04/28 00:38:43;;;;;;;13.27;4.35;;;9.00;99.90;;;;;;4995204;28;20058;-64
2022/04/28 00:41:08;;;;;;;11.20;4.80;;;9.10;99.90;;;;;;4994716;28;20050;-66
2022/04/28 00:43:47;;;;;;;14.88;4.45;;;9.00;99.90;;;;;;4994043;28;20085;-65
2022/04/28 00:46:13;;;;;;;11.95;5.10;;;9.00;99.90;;;;;;4995360;28;20372;-65
2022/04/28 00:51:23;;;;;;;14.53;5.47;;;9.00;99.90;;;;;;4996969;28;20061;-64
2022/04/28 00:53:51;;;;;;;12.70;5.22;;;9.00;99.90;;;;;;5014641;28;20056;-65
2022/04/28 00:56:17;;;;;;;9.00;4.63;;;9.00;99.90;;;;;;5014794;28;20470;-65
2022/04/28 00:58:43;;;;;;;12.27;5.50;;;8.90;99.90;;;;;;4998094;28;20045;-63
2022/04/28 01:01:10;;;;;;;14.30;4.88;;;8.90;99.90;;;;;;4997840;28;20082;-65
2022/04/28 01:03:36;;;;;;;14.20;5.30;;;8.80;99.90;;;;;;5014850;28;20095;-63
2022/04/28 01:06:04;;;;;;;10.98;5.68;;;8.80;99.90;;;;;;4995263;28;20125;-67
2022/04/28 01:08:30;;;;;;;12.15;5.32;;;8.80;99.90;;;;;;5014335;28;20042;-68
2022/04/28 01:10:56;;;;;;;19.08;5.85;;;8.80;99.90;;;;;;5014666;28;20048;-68
2022/04/28 01:13:22;;;;;;;14.77;6.22;;;8.80;99.90;;;;;;4997083;28;20053;-64
2022/04/28 01:15:49;;;;;;;13.63;5.47;;;8.80;99.90;;;;;;5014695;28;20116;-65
2022/04/28 01:18:15;;;;;;;11.77;4.85;;;8.80;99.90;;;;;;5014731;28;20325;-65
2022/04/28 01:20:42;;;;;;;12.80;5.78;;;8.80;99.90;;;;;;5014323;28;20045;-64
2022/04/28 01:23:08;;;;;;;10.27;4.60;;;8.80;99.90;;;;;;5014078;28;20050;-66
2022/04/28 01:25:33;;;;;;;8.85;4.43;;;8.80;99.90;;;;;;4997619;28;20104;-66
2022/04/28 01:27:59;;;;;;;9.80;4.85;;;8.70;99.90;;;;;;5014859;28;20103;-67
2022/04/28 01:30:25;;;;;;;10.90;4.72;;;8.70;99.90;;;;;;4997525;28;20050;-66
2022/04/28 01:32:57;;;;;;;10.07;4.38;;;8.70;99.90;;;;;;5014755;28;20053;-63
2022/04/28 01:35:23;;;;;;;10.13;4.30;;;8.70;99.90;;;;;;5010277;28;20046;-64
2022/04/28 01:37:48;;;;;;;11.52;5.20;;;8.70;99.90;;;;;;4994821;28;20046;-65
2022/04/28 01:40:14;;;;;;;14.20;5.10;;;8.80;99.90;;;;;;4977698;28;20507;-67
2022/04/28 01:42:41;;;;;;;10.00;4.82;;;8.70;99.90;;;;;;4995052;28;20432;-66
2022/04/28 01:45:08;;;;;;;13.40;5.10;;;8.70;99.90;;;;;;4994758;28;20053;-64
2022/04/28 01:47:34;;;;;;;10.88;4.82;;;8.70;99.90;;;;;;4981276;28;20046;-64
2022/04/28 01:49:59;;;;;;;13.10;5.03;;;8.70;99.90;;;;;;4999691;28;20503;-63
2022/04/28 01:55:09;;;;;;;14.52;4.72;;;8.60;99.90;;;;;;4998271;28;20472;-65
2022/04/28 01:57:34;;;;;;;9.05;4.68;;;8.60;99.90;;;;;;4981204;28;20049;-65
2022/04/28 02:00:00;;;;;;;13.00;5.15;;;8.60;99.90;;;;;;4998231;28;20108;-64
2022/04/28 02:02:26;;;;;;;13.05;4.70;;;8.50;99.90;;;;;;5016818;28;20502;-65
2022/04/28 02:04:52;;;;;;;10.38;4.82;;;8.60;99.90;;;;;;5017702;28;20046;-63
2022/04/28 02:07:18;;;;;;;8.43;5.03;;;8.60;99.90;;;;;;5017272;28;20467;-63
2022/04/28 02:09:45;;;;;;;11.20;4.97;;;8.50;99.90;;;;;;5017638;28;20046;-66
2022/04/28 02:12:13;;;;;;;10.40;5.05;;;8.60;99.90;;;;;;5000654;28;20050;-65
2022/04/28 02:14:39;;;;;;;14.75;4.90;;;8.50;99.90;;;;;;5017521;28;20456;-66
2022/04/28 02:17:06;;;;;;;16.05;4.75;;;8.50;99.90;;;;;;4998932;28;20487;-63
2022/04/28 02:19:31;;;;;;;14.93;5.68;;;8.50;99.90;;;;;;4997849;28;20471;-67
2022/04/28 02:21:57;;;;;;;12.65;4.88;;;8.50;99.90;;;;;;4997840;28;20129;-65
2022/04/28 02:24:23;;;;;;;13.85;5.78;;;8.50;99.90;;;;;;4997682;28;20361;-66
2022/04/28 02:26:49;;;;;;;14.20;5.82;;;8.50;99.90;;;;;;4997873;28;20042;-66
2022/04/28 02:29:14;;;;;;;14.30;5.70;;;8.50;99.90;;;;;;4997764;28;20054;-64
2022/04/28 02:31:41;;;;;;;12.23;5.75;;;8.50;99.90;;;;;;5014490;28;20117;-64
2022/04/28 02:34:06;;;;;;;11.40;5.93;;;8.50;99.90;;;;;;5016813;28;20042;-64
2022/04/28 02:36:32;;;;;;;10.93;6.28;;;8.40;99.90;;;;;;5017136;28;20091;-67
2022/04/28 02:38:58;;;;;;;18.00;6.53;;;8.50;99.90;;;;;;5017020;28;20053;-66
2022/04/28 02:41:23;;;;;;;10.45;5.32;;;8.50;99.90;;;;;;4999791;28;20046;-65
2022/04/28 02:43:49;;;;;;;12.55;5.85;;;8.50;99.90;;;;;;4989280;28;20038;-66
2022/04/28 02:46:15;;;;;;;10.23;4.93;;;8.50;99.90;;;;;;4997485;28;20415;-64
2022/04/28 02:48:41;;;;;;;12.45;5.53;;;8.50;99.90;;;;;;4996808;28;20047;-64
2022/04/28 02:51:06;;;;;;;11.30;6.35;;;8.50;99.90;;;;;;4963569;28;20085;-65
2022/04/28 02:53:33;;;;;;;10.80;5.72;;;8.50;99.90;;;;;;4997275;28;20058;-66
2022/04/28 02:55:58;;;;;;;12.38;5.63;;;8.50;99.90;;;;;;4997243;28;20559;-65
2022/04/28 02:58:24;;;;;;;12.10;5.53;;;8.40;99.90;;;;;;5004313;28;20050;-65
2022/04/28 03:00:49;;;;;;;12.23;5.65;;;8.40;99.90;;;;;;5016839;28;20121;-65
2022/04/28 03:03:15;;;;;;;13.80;5.53;;;8.40;99.90;;;;;;5016504;28;20038;-64
2022/04/28 03:11:09;;;;;;;11.13;5.53;;;8.40;99.90;;;;;;4998798;28;20057;-64
2022/04/28 03:13:35;;;;;;;10.38;5.28;;;8.40;99.90;;;;;;5015687;28;20117;-63
2022/04/28 03:16:02;;;;;;;13.75;5.97;;;8.40;99.90;;;;;;4999075;28;20068;-64
2022/04/28 03:18:28;;;;;;;14.00;5.68;;;8.30;99.90;;;;;;4987175;28;20049;-66
2022/04/28 03:20:54;;;;;;;11.05;5.30;;;8.40;99.90;;;;;;4979635;28;20046;-66
2022/04/28 03:23:20;;;;;;;10.15;4.90;;;8.40;99.90;;;;;;4996505;28;20475;-65
2022/04/28 03:25:46;;;;;;;13.05;5.47;;;8.40;99.90;;;;;;4996728;28;20563;-66
2022/04/28 03:28:12;;;;;;;12.77;6.13;;;8.40;99.90;;;;;;4979298;28;20130;-65
2022/04/28 03:30:37;;;;;;;8.75;5.20;;;8.40;99.90;;;;;;4996388;28;20042;-66
2022/04/28 03:33:03;;;;;;;10.45;5.22;;;8.40;99.90;;;;;;4996630;28;20144;-66
2022/04/28 03:35:29;;;;;;;12.68;5.72;;;8.40;99.90;;;;;;5007167;28;20057;-66
2022/04/28 03:37:54;;;;;;;14.48;5.55;;;8.40;99.90;;;;;;5016096;28;20046;-66
2022/04/28 03:40:20;;;;;;;13.02;5.80;;;8.40;99.90;;;;;;4999015;28;20054;-64
2022/04/28 03:42:47;;;;;;;13.05;6.75;;;8.40;99.90;;;;;;4998720;28;20116;-65
2022/04/28 03:45:13;;;;;;;10.95;6.47;;;8.40;99.90;;;;;;5015431;28;20550;-65
2022/04/28 03:47:39;;;;;;;16.63;7.72;;;8.40;99.90;;;;;;5011339;28;20117;-66
2022/04/28 03:50:06;;;;;;;14.88;6.55;;;8.30;99.90;;;;;;4996231;28;20081;-66
2022/04/28 03:52:31;;;;;;;12.30;5.88;;;8.30;99.90;;;;;;4995756;28;20421;-64
2022/04/28 03:54:57;;;;;;;9.93;5.35;;;8.30;99.90;;;;;;4995996;28;20125;-63
2022/04/28 03:57:22;;;;;;;13.73;5.88;;;8.30;99.90;;;;;;4996009;28;20057;-66
2022/04/28 03:59:48;;;;;;;8.05;5.25;;;8.30;99.90;;;;;;4995985;28;20050;-65
2022/04/28 04:02:14;;;;;;;10.52;5.38;;;8.40;99.90;;;;;;4996042;28;20065;-65
2022/04/28 04:04:39;;;;;;;15.63;5.72;;;8.40;99.90;;;;;;4978705;28;20444;-64
2022/04/28 04:07:05;;;;;;;10.55;5.47;;;8.40;99.90;;;;;;4996021;28;20531;-64
2022/04/28 04:09:31;;;;;;;12.95;4.90;;;8.40;99.90;;;;;;5003206;28;20116;-64
2022/04/28 04:11:56;;;;;;;10.25;5.10;;;8.40;99.90;;;;;;4995061;28;20060;-63
2022/04/28 04:14:22;;;;;;;10.10;5.60;;;8.40;99.90;;;;;;5015066;28;20141;-64
2022/04/28 04:16:47;;;;;;;13.38;5.20;;;8.40;99.90;;;;;;5015377;28;20046;-63
2022/04/28 04:19:13;;;;;;;16.48;6.72;;;8.40;99.90;;;;;;4997852;28;20054;-65
2022/04/28 04:21:39;;;;;;;9.32;5.30;;;8.40;99.90;;;;;;5014480;28;20068;-64
2022/04/28 04:24:05;;;;;;;12.20;5.30;;;8.40;99.90;;;;;;4995790;28;20117;-66
2022/04/28 04:26:31;;;;;;;8.55;5.03;;;8.40;99.90;;;;;;4993503;28;20471;-66
2022/04/28 04:28:56;;;;;;;9.70;5.13;;;8.40;99.90;;;;;;4998130;28;20049;-63
2022/04/28 04:34:06;;;;;;;9.97;5.27;;;8.40;99.90;;;;;;5015156;28;20356;-66
2022/04/28 04:36:31;;;;;;;11.38;5.85;;;8.40;99.90;;;;;;4995571;28;20056;-64
2022/04/28 04:38:57;;;;;;;14.88;6.22;;;8.50;99.90;;;;;;4995619;28;20042;-65
2022/04/28 04:41:23;;;;;;;12.23;6.45;;;8.60;99.90;;;;;;5009649;28;20124;-64
2022/04/28 04:43:48;;;;;;;14.02;6.38;;;8.50;99.90;;;;;;5014679;28;20056;-63
2022/04/28 04:46:14;;;;;;;12.32;6.60;;;8.50;99.90;;;;;;5015002;28;20072;-65
2022/04/28 04:48:39;;;;;;;15.23;6.82;;;8.60;99.90;;;;;;4997624;28;20050;-63
2022/04/28 04:51:05;;;;;;;13.93;6.28;;;8.60;99.90;;;;;;4997475;28;20046;-65
2022/04/28 04:53:30;;;;;;;16.52;6.47;;;8.60;99.90;;;;;;5015155;28;20050;-64
2022/04/28 04:55:56;;;;;;;18.30;6.82;;;8.70;99.90;;;;;;4996930;28;20133;-63
2022/04/28 04:58:21;;;;;;;14.23;5.65;;;8.70;99.90;;;;;;5011590;28;20049;-65
2022/04/28 05:00:48;;;;;;;16.70;6.95;;;8.70;99.90;;;;;;4991465;28;20053;-64
2022/04/28 05:03:14;;;;;;;14.18;5.38;;;8.70;99.90;;;;;;5002668;28;20042;-65
2022/04/28 05:05:40;;;;;;;11.40;5.22;;;8.70;99.90;;;;;;4997872;28;20149;-65
2022/04/28 05:08:06;;;;;;;12.95;5.15;;;8.70;99.90;;;;;;5014838;28;20091;-64
2022/04/28 05:10:31;;;;;;;11.98;5.13;;;8.70;99.90;;;;;;4997595;28;20070;-64
2022/04/28 05:12:57;;;;;;;15.32;5.25;;;8.70;99.90;;;;;;4997639;28;20049;-63
2022/04/28 05:15:23;;;;;;;16.45;4.80;;;8.70;99.90;;;;;;5014567;28;20068;-65
2022/04/28 05:17:48;;;;;;;13.10;4.50;;;8.70;99.90;;;;;;5012929;28;20042;-67
2022/04/28 05:20:14;;;;;;;13.15;5.28;;;8.70;99.90;;;;;;5015047;28;20058;-66
2022/04/28 05:22:39;;;;;;;14.52;4.50;;;8.70;99.90;;;;;;5018753;28;20133;-64
2022/04/28 05:25:05;;;;;;;15.25;5.15;;;8.70;99.90;;;;;;5018158;28;20481;-66
2022/04/28 05:27:31;;;;;;;13.15;5.93;;;8.70;99.90;;;;;;5018296;28;20523;-64
2022/04/28 05:29:57;;;;;;;17.08;6.10;;;8.70;99.90;;;;;;5018294;28;20053;-66
2022/04/28 05:32:22;;;;;;;14.27;4.80;;;8.70;99.90;;;;;;5013713;28;20448;-64
2022/04/28 05:34:48;;;;;;;10.07;4.95;;;8.80;99.90;;;;;;4981404;28;20094;-66
2022/04/28 05:37:14;;;;;;;9.93;4.57;;;8.80;99.90;;;;;;4998415;28;20112;-64
2022/04/28 05:39:42;;;;;;;11.38;4.45;;;8.90;99.90;;;;;;4999608;28;20121;-64
2022/04/28 05:42:08;;;;;;;13.32;5.00;;;8.90;99.90;;;;;;5017778;28;20112;-65
2022/04/28 05:47:19;;;;;;;15.25;5.00;;;8.90;99.90;;;;;;4990207;28;20046;-65
2022/04/28 05:49:45;;;;;;;11.90;5.15;;;9.00;99.90;;;;;;5000205;28;20069;-65
2022/04/28 05:52:11;;;;;;;12.52;4.40;;;9.00;99.90;;;;;;4998345;28;20081;-63
2022/04/28 05:54:37;;;;;;;13.15;5.65;;;9.10;99.90;;;;;;4998676;28;20417;-64
2022/04/28 05:57:03;;;;;;;14.50;5.43;;;9.10;99.90;;;;;;4998482;28;20057;-63
2022/04/28 05:59:28;;;;;;;13.35;4.75;;;9.20;99.90;;;;;;4995139;28;20440;-64
2022/04/28 06:01:54;;;;;;;10.77;4.90;;;9.20;99.90;;;;;;5009438;28;20050;-66
2022/04/28 06:04:20;;;;;;;13.88;5.55;;;9.20;99.90;;;;;;5000603;28;20054;-62
2022/04/28 06:06:45;;;;;;;11.80;5.40;;;9.20;99.90;;;;;;5017584;28;20107;-64
2022/04/28 06:09:11;;;;;;;11.73;4.55;;;9.30;99.90;;;;;;5017624;28;20052;-66
2022/04/28 06:11:36;;;;;;;13.88;5.72;;;9.30;99.90;;;;;;5017694;28;20054;-64
2022/04/28 06:14:02;;;;;;;11.20;4.32;;;9.30;99.90;;;;;;5017450;28;20089;-64
2022/04/28 06:16:27;;;;;;;9.43;4.03;;;9.30;99.90;;;;;;5000224;28;20077;-66
2022/04/28 06:18:53;;;;;;;10.63;3.95;;;9.30;99.90;;;;;;4984142;28;20054;-64
2022/04/28 06:21:18;;;;;;;11.68;3.83;;;9.20;99.90;;;;;;4999385;28;20056;-67
2022/04/28 06:23:45;;;;;;;9.15;3.65;;;9.20;99.90;;;;;;4997038;28;20050;-69
2022/04/28 06:26:11;;;;;;;10.57;3.33;;;9.20;99.90;;;;;;4994062;28;20042;-65
2022/04/28 06:28:37;;;;;;;11.57;3.25;;;9.20;99.90;;;;;;5009013;28;20048;-68
2022/04/28 06:31:02;;;;;;;9.90;3.90;;;9.20;99.90;;;;;;4991600;28;20054;-66
2022/04/28 06:33:28;;;;;;;10.10;3.67;;;9.30;99.90;;;;;;5009197;28;20053;-67
2022/04/28 06:35:55;;;;;;;10.88;3.90;;;9.40;99.90;;;;;;5012562;28;20038;-66
2022/04/28 06:38:20;;;;;;;10.32;3.97;;;9.40;99.90;;;;;;5012951;28;20463;-66
2022/04/28 06:40:46;;;;;;;16.30;4.88;;;9.50;99.90;;;;;;4983137;28;20104;-67
2022/04/28 06:43:12;;;;;;;11.80;4.28;;;9.50;99.90;;;;;;4996914;28;20041;-66
2022/04/28 06:46:11;;;;;;;13.88;4.43;;;9.50;99.90;;;;;;5016387;28;20046;-66
2022/04/28 06:48:25;;;;;;;16.63;5.15;;;9.50;99.90;;;;;;5000893;28;20712;-65
2022/04/28 06:50:51;;;;;;;7.00;3.42;;;9.50;99.90;;;;;;5011959;28;20482;-65
2022/04/28 06:53:16;;;;;;;10.25;3.65;;;9.60;99.90;;;;;;5006457;28;20121;-69
2022/04/28 06:55:42;;;;;;;10.48;3.50;;;9.60;99.90;;;;;;5012667;28;20080;-69
2022/04/28 06:58:07;;;;;;;9.88;3.90;;;9.80;99.90;;;;;;5010400;28;20095;-66
2022/04/28 07:00:33;;;;;;;13.93;3.33;;;9.80;99.90;;;;;;5013541;28;20403;-64
2022/04/28 07:02:58;;;;;;;9.30;3.53;;;9.80;99.90;;;;;;5012780;28;20050;-68
2022/04/28 07:05:24;;;;;;;12.15;2.78;;;9.90;99.90;;;;;;5016090;28;20125;-67
2022/04/28 07:07:50;;;;;;;6.80;3.25;;;10.00;99.90;;;;;;4999065;28;20054;-69
2022/04/28 07:10:15;;;;;;;5.40;2.53;;;10.20;99.90;;;;;;5010806;28;20034;-66
2022/04/28 07:12:41;;;;;;;8.95;2.65;;;10.30;99.90;;;;;;5008021;28;20356;-68
2022/04/28 07:15:07;;;;;;;11.15;2.75;;;10.40;99.90;;;;;;5016501;28;20037;-69
2022/04/28 07:17:32;;;;;;;12.68;3.40;;;10.50;99.90;;;;;;5007878;28;20054;-71
2022/04/28 07:19:58;;;;;;;11.20;4.35;;;10.40;99.90;;;;;;4996421;28;20050;-68
2022/04/28 07:22:24;;;;;;;16.98;3.85;;;10.30;99.90;;;;;;4996351;28;20125;-69
2022/04/28 07:24:49;;;;;;;12.50;3.85;;;10.20;99.90;;;;;;4996532;28;20050;-69
2022/04/28 07:27:15;;;;;;;8.13;3.08;;;10.10;99.90;;;;;;4999518;28;20056;-68
2022/04/28 07:29:41;;;;;;;9.40;3.00;;;10.20;99.90;;;;;;5013188;28;20054;-68
2022/04/28 07:32:07;;;;;;;10.90;3.17;;;10.30;99.90;;;;;;5003060;28;20046;-66
2022/04/28 07:34:32;;;;;;;13.55;4.38;;;10.30;99.90;;;;;;4996279;28;20042;-66
2022/04/28 07:36:58;;;;;;;9.60;3.10;;;10.40;99.90;;;;;;4997551;28;20060;-66
2022/04/28 07:39:24;;;;;;;8.02;2.53;;;10.50;99.90;;;;;;4991458;28;20124;-65
2022/04/28 07:41:49;;;;;;;10.32;3.03;;;10.60;99.90;;;;;;4975241;28;20041;-65
2022/04/28 07:44:15;;;;;;;8.55;2.97;;;10.70;99.90;;;;;;5004752;28;20074;-66
2022/04/28 07:46:40;;;;;;;10.27;3.05;;;10.70;99.90;;;;;;5006443;28;20100;-66
2022/04/28 07:49:06;;;;;;;8.77;2.85;;;10.70;99.90;;;;;;4998554;28;20053;-67
2022/04/28 07:51:31;;;;;;;15.45;3.78;;;10.70;99.90;;;;;;4998513;28;20057;-68
2022/04/28 07:53:57;;;;;;;13.02;3.10;;;10.70;99.90;;;;;;5012712;28;20124;-69
2022/04/28 07:56:22;;;;;;;10.50;3.10;;;10.70;99.90;;;;;;4997619;28;20060;-67
2022/04/28 07:58:48;;;;;;;13.98;3.40;;;10.70;99.90;;;;;;4997067;28;20092;-69
2022/04/28 08:01:14;;;;;;;11.52;2.90;;;10.70;99.90;;;;;;5015744;28;20435;-72
2022/04/28 08:03:40;;;;;;;13.73;3.83;;;10.70;99.90;;;;;;5015163;28;20095;-70
2022/04/28 08:06:07;;;;;;;7.93;3.22;;;10.70;99.90;;;;;;5015506;28;20120;-72
2022/04/28 08:08:36;;;;;;;13.60;3.67;;;10.60;99.90;;;;;;5015512;28;20045;-72
2022/04/28 08:11:03;;;;;;;13.77;4.15;;;10.60;99.90;;;;;;4998158;28;20060;-72
2022/04/28 08:13:29;;;;;;;8.98;3.28;;;10.70;99.90;;;;;;4992870;28;20042;-68
2022/04/28 08:15:55;;;;;;;7.57;2.75;;;10.70;99.90;;;;;;5014980;28;20471;-68
2022/04/28 08:18:21;;;;;;;15.25;3.28;;;10.70;99.90;;;;;;5015010;28;20050;-71
2022/04/28 08:20:46;;;;;;;7.63;2.42;;;10.70;99.90;;;;;;5012497;28;20073;-74
2022/04/28 08:23:12;;;;;;;8.18;2.97;;;10.70;99.90;;;;;;5012454;28;20069;-70
2022/04/28 08:25:38;;;;;;;12.75;4.28;;;10.70;99.90;;;;;;5011906;28;20133;-69
2022/04/28 08:28:03;;;;;;;12.75;3.13;;;10.60;99.90;;;;;;5015234;28;20144;-70
2022/04/28 08:30:30;;;;;;;9.80;3.08;;;10.70;99.90;;;;;;4995956;28;20427;-70
2022/04/28 08:32:56;;;;;;;8.02;2.80;;;10.60;99.90;;;;;;4983989;28;20049;-70
2022/04/28 08:35:21;;;;;;;11.45;3.33;;;10.60;99.90;;;;;;4998131;28;20132;-71
2022/04/28 08:37:47;;;;;;;13.80;3.05;;;10.60;99.90;;;;;;4998158;28;20129;-71
2022/04/28 08:40:13;;;;;;;15.13;3.95;;;10.60;99.90;;;;;;5015551;28;20131;-71
2022/04/28 08:42:41;;;;;;;13.25;3.72;;;10.60;99.90;;;;;;5014932;28;20444;-70
2022/04/28 08:45:07;;;;;;;11.88;3.10;;;10.60;99.90;;;;;;5014942;28;20108;-71
2022/04/28 08:47:33;;;;;;;12.85;3.45;;;10.70;99.90;;;;;;5014463;28;20042;-69
2022/04/28 08:49:58;;;;;;;11.77;3.47;;;10.60;99.90;;;;;;5015086;28;20049;-70
2022/04/28 08:52:27;;;;;;;10.80;3.47;;;10.60;99.90;;;;;;4981512;28;20571;-71
2022/04/28 08:54:54;;;;;;;11.77;3.67;;;10.70;99.90;;;;;;4998000;28;20470;-70
2022/04/28 08:57:21;;;;;;;8.63;2.90;;;10.80;99.90;;;;;;5001754;28;20112;-70
2022/04/28 08:59:48;;;;;;;13.80;3.72;;;10.90;99.90;;;;;;5019425;28;20119;-71
2022/04/28 09:02:15;;;;;;;11.05;3.55;;;11.00;99.90;;;;;;5004382;28;20121;-68
2022/04/28 09:04:41;;;;;;;8.35;3.22;;;11.00;99.90;;;;;;4999546;28;20054;-72
2022/04/28 09:07:08;;;;;;;10.65;3.90;;;11.10;99.90;;;;;;4981848;28;20042;-72
2022/04/28 09:09:34;;;;;;;12.07;4.07;;;11.10;99.90;;;;;;4999199;28;20064;-68
2022/04/28 09:12:02;;;;;;;10.52;3.47;;;11.20;99.90;;;;;;4982308;28;20054;-69
2022/04/28 09:14:28;;;;;;;11.90;3.17;;;11.10;99.90;;;;;;4982001;28;20054;-70
2022/04/28 09:17:00;;;;;;;11.93;3.25;;;11.20;99.90;;;;;;5011991;28;20053;-70
2022/04/28 09:19:34;;;;;;;12.23;3.83;;;11.10;99.90;;;;;;5001114;28;20042;-71
2022/04/28 09:22:02;;;;;;;12.73;3.60;;;11.10;99.90;;;;;;5018431;28;20113;-70
2022/04/28 09:24:28;;;;;;;13.07;4.03;;;11.10;99.90;;;;;;5018129;28;20354;-71
2022/04/28 09:26:55;;;;;;;11.27;3.53;;;11.20;99.90;;;;;;5018089;28;20042;-70
2022/04/28 09:29:29;;;;;;;13.68;3.70;;;11.20;99.90;;;;;;5018351;28;20049;-71
2022/04/28 09:31:55;;;;;;;8.13;3.70;;;11.20;99.90;;;;;;5001156;28;20050;-71
2022/04/28 09:34:23;;;;;;;13.98;4.00;;;11.20;99.90;;;;;;5018278;28;20069;-70
2022/04/28 09:36:50;;;;;;;11.52;4.22;;;11.20;99.90;;;;;;5018289;28;20046;-71
2022/04/28 09:42:29;;;;;;;11.48;3.65;;;11.30;99.90;;;;;;5018059;28;20046;-71
2022/04/28 09:44:55;;;;;;;10.50;4.00;;;11.40;99.90;;;;;;5018076;28;20053;-71
2022/04/28 09:47:23;;;;;;;15.38;4.00;;;11.40;99.90;;;;;;5018137;28;20042;-71
2022/04/28 09:49:52;;;;;;;11.07;4.03;;;11.40;99.90;;;;;;5017970;28;20050;-70
2022/04/28 09:52:28;;;;;;;12.57;3.83;;;11.40;99.90;;;;;;5017896;28;20064;-69
2022/04/28 09:54:57;;;;;;;10.88;3.75;;;11.30;99.90;;;;;;5017903;28;20046;-70
2022/04/28 09:57:23;;;;;;;13.05;4.03;;;11.20;99.90;;;;;;5017804;28;20057;-71
2022/04/28 09:59:58;;;;;;;11.63;3.70;;;11.10;99.90;;;;;;5017532;28;20038;-70
2022/04/28 10:02:26;;;;;;;12.27;3.60;;;11.20;99.90;;;;;;5017177;28;20042;-69
2022/04/28 10:04:53;;;;;;;13.30;3.60;;;11.20;99.90;;;;;;5000043;28;20058;-69
2022/04/28 10:07:20;;;;;;;14.27;4.20;;;11.30;99.90;;;;;;5014558;28;20057;-70
2022/04/28 10:09:48;;;;;;;15.63;3.75;;;11.30;99.90;;;;;;5017778;28;20136;-71
2022/04/28 10:12:18;;;;;;;11.32;4.20;;;11.40;99.90;;;;;;5017816;28;20046;-70
2022/04/28 10:14:45;;;;;;;9.75;3.67;;;11.40;99.90;;;;;;5017636;28;20056;-68
2022/04/28 10:17:19;;;;;;;14.40;4.57;;;11.50;99.90;;;;;;5017099;28;20072;-70
2022/04/28 10:19:51;;;;;;;9.98;4.13;;;11.50;99.90;;;;;;5014305;28;20456;-70
2022/04/28 10:22:22;;;;;;;10.90;3.80;;;11.50;99.90;;;;;;5017327;28;20041;-69
2022/04/28 10:33:21;;;;;;;12.18;4.20;;;11.70;99.90;;;;;;4997589;28;20137;-69
2022/04/28 10:35:49;;;;;;;13.32;3.88;;;11.80;99.90;;;;;;4997691;28;20046;-70
2022/04/28 10:38:22;;;;;;;11.88;4.25;;;11.80;99.90;;;;;;4997338;28;20043;-68
2022/04/28 10:41:05;;;;;;;12.88;3.90;;;11.80;99.90;;;;;;4997519;28;20065;-71
2022/04/28 10:43:38;;;;;;;15.30;4.18;;;11.80;99.90;;;;;;4996320;28;20050;-69
2022/04/28 10:46:09;;;;;;;16.90;4.78;;;11.80;99.90;;;;;;5004649;28;20371;-69
2022/04/28 10:48:46;;;;;;;11.55;3.65;;;11.80;99.90;;;;;;5016877;28;20042;-72
2022/04/28 10:51:20;;;;;;;11.80;4.40;;;11.90;99.90;;;;;;5016713;28;20054;-70
2022/04/28 10:54:06;;;;;;;15.63;3.97;;;11.90;99.90;;;;;;4999753;28;20133;-71
2022/04/28 10:56:56;;;;;;;15.07;4.40;;;11.80;99.90;;;;;;5016847;28;20045;-70
2022/04/28 10:59:34;;;;;;;11.60;4.10;;;11.80;99.90;;;;;;5015985;28;20042;-72
2022/04/28 11:02:14;;;;;;;12.68;4.07;;;11.80;99.90;;;;;;5016771;28;20046;-70
2022/04/28 11:04:42;;;;;;;13.65;4.43;;;11.80;99.90;;;;;;5016656;28;20037;-69
2022/04/28 11:07:14;;;;;;;14.35;3.90;;;11.60;99.90;;;;;;5016067;28;20046;-70
2022/04/28 11:09:43;;;;;;;14.30;4.15;;;11.60;99.90;;;;;;4999274;28;20049;-71
2022/04/28 11:12:18;;;;;;;9.60;3.85;;;11.70;99.90;;;;;;4996444;28;20057;-71
2022/04/28 11:14:49;;;;;;;8.38;4.25;;;11.70;99.90;;;;;;5016021;28;20045;-70
2022/04/28 11:17:17;;;;;;;12.68;3.97;;;11.80;99.90;;;;;;5016320;28;20041;-69
2022/04/28 11:19:44;;;;;;;9.07;3.58;;;11.70;99.90;;;;;;5015577;28;20050;-69
2022/04/28 11:22:14;;;;;;;12.43;3.88;;;11.70;99.90;;;;;;5016445;28;20101;-71
2022/04/28 11:24:41;;;;;;;9.43;3.72;;;11.70;99.90;;;;;;5016148;28;20046;-69
2022/04/28 11:27:08;;;;;;;8.45;3.40;;;11.80;99.90;;;;;;5016129;28;20057;-71
2022/04/28 11:29:39;;;;;;;11.90;4.10;;;11.90;99.90;;;;;;4999940;28;20467;-70
2022/04/28 11:32:08;;;;;;;9.63;3.97;;;12.00;99.90;;;;;;4996649;28;20077;-71
2022/04/28 11:34:34;;;;;;;19.13;4.72;;;12.10;99.90;;;;;;4996402;28;20047;-70
2022/04/28 11:37:14;;;;;;;10.20;3.08;;;11.70;99.90;;;;;;4996888;28;20038;-71
2022/04/28 11:39:42;;;;;;;11.23;4.13;;;11.80;99.90;;;;;;4996372;28;20050;-71
2022/04/28 11:42:09;;;;;;;9.77;3.85;;;11.60;99.90;;;;;;4996405;28;20376;-70
2022/04/28 11:44:43;;;;;;;8.50;3.58;;;11.60;99.90;;;;;;5012292;28;20045;-71
2022/04/28 11:47:08;;;;;;;9.70;3.42;;;11.70;99.90;;;;;;5014871;28;20456;-70
2022/04/28 11:49:39;;;;;;;8.07;3.40;;;11.80;99.90;;;;;;4995833;28;20046;-69
2022/04/28 11:52:25;;;;;;;10.68;3.88;;;11.90;99.90;;;;;;4995629;28;20042;-72
2022/04/28 11:55:03;;;;;;;10.25;3.63;;;12.00;99.90;;;;;;4996216;28;20145;-71
2022/04/28 11:57:30;;;;;;;11.20;3.65;;;12.00;99.90;;;;;;4995873;28;20047;-68
2022/04/28 11:59:56;;;;;;;12.80;3.50;;;12.00;99.90;;;;;;4978938;28;20089;-69
2022/04/28 12:02:26;;;;;;;14.65;3.58;;;12.00;99.90;;;;;;4996062;28;20439;-71
2022/04/28 12:04:52;;;;;;;10.32;3.78;;;12.00;99.90;;;;;;4995854;28;20050;-71
2022/04/28 12:07:22;;;;;;;11.75;3.15;;;12.00;99.90;;;;;;4996020;28;20416;-69
2022/04/28 12:15:22;;;;;;;19.13;4.40;;;12.10;99.90;;;;;;4995530;28;20050;-69
2022/04/28 12:20:56;;;;;;;11.82;3.95;;;11.90;99.90;;;;;;4995782;28;20050;-71
2022/04/28 12:23:37;;;;;;;9.98;3.67;;;11.90;99.90;;;;;;4995951;28;20070;-70
2022/04/28 12:26:06;;;;;;;10.25;4.65;;;12.00;99.90;;;;;;4995944;28;20140;-70
2022/04/28 12:28:38;;;;;;;14.77;4.40;;;11.90;99.90;;;;;;4995352;28;20057;-70
2022/04/28 12:31:04;;;;;;;10.77;3.50;;;11.90;99.90;;;;;;4995367;28;20046;-70
2022/04/28 12:33:34;;;;;;;19.15;4.95;;;11.90;99.90;;;;;;4978523;28;20140;-73
2022/04/28 12:36:01;;;;;;;12.45;4.00;;;12.00;99.90;;;;;;4978872;28;20073;-69
2022/04/28 12:38:28;;;;;;;8.32;3.33;;;12.00;99.90;;;;;;4995750;28;20047;-70
2022/04/28 12:40:54;;;;;;;15.55;4.45;;;12.10;99.90;;;;;;4995685;28;20057;-70
2022/04/28 12:43:42;;;;;;;13.05;3.90;;;12.00;99.90;;;;;;4978107;28;20101;-70
2022/04/28 12:46:08;;;;;;;11.77;3.70;;;12.10;99.90;;;;;;5007252;28;20456;-71
2022/04/28 12:48:38;;;;;;;8.75;3.88;;;12.30;99.90;;;;;;5013992;28;20479;-72
2022/04/28 12:51:12;;;;;;;7.50;3.42;;;12.30;99.90;;;;;;5014964;28;20045;-71
2022/04/28 12:53:38;;;;;;;;;;;12.20;99.90;;;;;;4997674;28;20049;-70
2022/04/28 12:56:13;;;;;;;11.13;3.65;;;12.30;99.90;;;;;;4997420;28;19931;-69
2022/04/28 12:58:53;;;;;;;11.07;4.38;;;12.30;99.90;;;;;;5014691;28;20460;-70
2022/04/28 13:01:20;;;;;;;9.55;4.10;;;12.40;99.90;;;;;;5012955;28;20448;-71
2022/04/28 13:04:04;;;;;;;10.43;4.05;;;12.30;99.90;;;;;;5014972;28;20113;-70
2022/04/28 13:06:31;;;;;;;12.57;3.58;;;12.20;99.90;;;;;;4997780;28;20502;-71
2022/04/28 13:09:00;;;;;;;9.18;3.45;;;12.10;99.90;;;;;;5014996;28;20123;-69
2022/04/28 13:11:28;;;;;;;11.88;3.92;;;12.30;99.90;;;;;;5015063;28;20064;-69
2022/04/28 13:13:54;;;;;;;9.68;3.92;;;12.60;99.90;;;;;;4985653;28;20054;-70
2022/04/28 13:16:20;;;;;;;14.35;3.50;;;12.80;99.90;;;;;;4995425;28;20463;-72
2022/04/28 13:18:46;;;;;;;8.75;3.30;;;13.00;99.90;;;;;;4995049;28;20109;-69
2022/04/28 13:21:12;;;;;;;9.60;4.07;;;12.80;99.90;;;;;;4997145;28;20042;-70
2022/04/28 13:23:39;;;;;;;10.95;4.15;;;12.60;99.90;;;;;;5014792;28;20045;-72